Time;durP1;ratioP1;P1;durP2;ratioP2;P2;SDS_P1;SDS_P2;PMS_P1;PMS_P2;Temp;Humidity;BMP_temperature;BMP_pressure;BME280_temperature;BME280_humidity;BME280_pressure;Samples;Min_cycle;Max_cycle;Signal;HPM_P1;HPM_P2
2022/10/02 00:01:09;;;;;;;;;4.50;4.50;;;;;19.42;56.49;101334.09;2045425;28;46169;-65
2022/10/02 00:02:27;;;;;;;;;4.75;4.00;;;;;19.42;56.57;101331.41;2046570;28;45683;-65
2022/10/02 00:03:34;;;;;;;;;4.25;3.75;;;;;19.41;56.49;101333.22;2040892;28;46069;-65
2022/10/02 00:04:46;;;;;;;;;3.00;2.50;;;;;19.41;56.66;101329.66;2051223;28;46009;-66
2022/10/02 00:05:57;;;;;;;;;4.25;4.25;;;;;19.41;56.89;101322.44;2048801;28;45959;-65
2022/10/02 00:07:04;;;;;;;;;2.50;2.50;;;;;19.42;56.81;101329.56;2050064;28;46651;-65
2022/10/02 00:08:21;;;;;;;;;3.00;3.00;;;;;19.42;56.70;101318.81;2053570;28;45374;-64
2022/10/02 00:09:30;;;;;;;;;3.50;3.25;;;;;19.45;57.24;101327.72;2050543;28;47118;-64
2022/10/02 00:10:52;;;;;;;;;3.75;3.75;;;;;19.44;57.49;101325.94;2048907;28;46485;-64
2022/10/02 00:11:57;;;;;;;;;3.00;3.00;;;;;19.44;57.00;101328.63;2050073;28;47083;-64
2022/10/02 00:13:05;;;;;;;;;3.00;3.00;;;;;19.40;57.41;101326.09;2053850;28;46025;-64
2022/10/02 00:14:12;;;;;;;;;4.00;2.50;;;;;19.40;57.40;101325.22;2049778;28;48417;-64
2022/10/02 00:15:22;;;;;;;;;3.00;2.75;;;;;19.40;56.99;101330.59;2048615;28;48091;-63
2022/10/02 00:16:32;;;;;;;;;3.75;2.00;;;;;19.38;58.22;101338.75;2046068;28;45413;-65
2022/10/02 00:17:39;;;;;;;;;5.00;3.75;;;;;19.38;57.98;101335.19;2049333;28;45942;-64
2022/10/02 00:18:40;;;;;;;;;3.00;3.00;;;;;19.35;58.24;101330.84;2051905;28;48341;-65
2022/10/02 00:19:41;;;;;;;;;2.25;2.25;;;;;19.33;58.15;101332.75;2048183;28;45709;-64
2022/10/02 00:20:58;;;;;;;;;4.00;3.00;;;;;19.32;58.06;101344.44;2057290;28;46664;-64
2022/10/02 00:22:11;;;;;;;;;3.00;3.00;;;;;19.29;58.62;101341.00;2056512;28;46496;-64
2022/10/02 00:23:31;;;;;;;;;3.25;3.25;;;;;19.28;58.62;101341.97;2063524;28;47992;-64
2022/10/02 00:24:50;;;;;;;;;3.25;3.25;;;;;19.26;58.47;101344.72;2099411;28;46099;-64
2022/10/02 00:26:16;;;;;;;;;3.00;3.00;;;;;19.24;58.75;101345.75;2101522;28;46257;-63
2022/10/02 00:27:26;;;;;;;;;4.75;4.00;;;;;19.21;58.34;101341.41;2098613;28;48264;-65
2022/10/02 00:28:34;;;;;;;;;1.75;1.75;;;;;19.18;59.15;101336.13;2096578;28;47236;-64
2022/10/02 00:29:52;;;;;;;;;5.00;3.25;;;;;19.16;59.44;101345.22;2100911;28;45767;-63
2022/10/02 00:31:17;;;;;;;;;5.75;4.25;;;;;19.14;59.47;101339.06;2103411;28;45844;-63
2022/10/02 00:32:31;;;;;;;;;4.50;4.50;;;;;19.15;59.49;101344.38;2099544;28;46731;-64
2022/10/02 00:33:59;;;;;;;;;2.00;1.50;;;;;19.14;59.99;101345.31;2096387;28;46037;-65
2022/10/02 00:35:23;;;;;;;;;2.75;2.75;;;;;19.12;59.61;101341.81;2093298;28;47328;-65
2022/10/02 00:36:52;;;;;;;;;3.25;3.25;;;;;19.11;59.94;101340.09;2097567;27;48200;-64
2022/10/02 00:38:11;;;;;;;;;2.50;2.25;;;;;19.09;60.18;101350.03;2094106;28;46844;-64
2022/10/02 00:39:39;;;;;;;;;4.00;2.25;;;;;19.08;60.28;101345.63;2093626;28;46503;-64
2022/10/02 00:40:49;;;;;;;;;4.00;3.00;;;;;19.08;60.21;101346.50;2092407;28;47168;-65
2022/10/02 00:41:58;;;;;;;;;2.00;2.00;;;;;19.08;59.87;101338.41;2096303;28;46710;-64
2022/10/02 00:43:02;;;;;;;;;2.00;1.75;;;;;19.07;60.45;101339.38;2097214;28;46376;-64
2022/10/02 00:44:25;;;;;;;;;4.50;3.75;;;;;19.05;60.27;101338.53;2086581;28;46522;-63
2022/10/02 00:45:55;;;;;;;;;4.00;3.00;;;;;19.06;60.87;101344.81;2089576;28;46526;-64
2022/10/02 00:47:19;;;;;;;;;2.50;2.50;;;;;19.06;60.05;101344.81;2094696;28;45619;-65
2022/10/02 00:48:47;;;;;;;;;6.00;2.75;;;;;19.02;60.74;101344.06;2097803;28;46006;-64
2022/10/02 00:49:58;;;;;;;;;2.50;2.50;;;;;19.03;61.19;101344.94;2096571;28;45970;-66
2022/10/02 00:51:13;;;;;;;;;4.75;4.00;;;;;19.03;60.97;101359.25;2097476;28;46462;-65
2022/10/02 00:52:43;;;;;;;;;2.00;2.00;;;;;19.01;61.12;101347.69;2088528;28;47275;-63
2022/10/02 00:54:07;;;;;;;;;3.50;2.50;;;;;19.02;61.30;101351.25;2092369;28;47040;-64
2022/10/02 00:55:36;;;;;;;;;3.50;2.75;;;;;19.02;61.45;101349.44;2093239;28;46721;-65
2022/10/02 00:57:10;;;;;;;;;2.00;2.00;;;;;19.03;61.51;101351.19;2089966;28;45246;-64
2022/10/02 00:58:28;;;;;;;;;5.75;4.00;;;;;19.04;61.08;101346.69;2054908;28;46951;-65
2022/10/02 00:59:51;;;;;;;;;2.00;2.00;;;;;19.04;61.42;101357.44;2055532;28;45840;-64
2022/10/02 01:01:04;;;;;;;;;3.75;3.50;;;;;19.03;61.20;101353.00;2055516;28;46716;-63
2022/10/02 01:02:12;;;;;;;;;3.75;3.75;;;;;19.03;61.60;101350.31;2055663;28;46747;-64
2022/10/02 01:03:40;;;;;;;;;2.75;2.75;;;;;19.03;61.67;101358.38;2055407;28;45561;-65
2022/10/02 01:04:41;;;;;;;;;3.25;3.25;;;;;19.02;61.24;101356.66;2038938;28;46529;-64
2022/10/02 01:05:41;;;;;;;;;3.67;2.67;;;;;19.01;61.27;101357.59;2039161;28;46812;-65
2022/10/02 01:06:41;;;;;;;;;2.00;2.00;;;;;19.01;61.48;101354.91;2055395;28;45481;-67
2022/10/02 01:07:45;;;;;;;;;4.00;4.00;;;;;18.99;61.74;101357.66;2055254;28;46845;-63
2022/10/02 01:08:45;;;;;;;;;3.00;3.00;;;;;18.98;61.98;101361.31;2055409;28;46566;-64
2022/10/02 01:09:46;;;;;;;;;2.00;2.00;;;;;18.99;61.58;101360.34;2047616;28;46086;-64
2022/10/02 01:10:46;;;;;;;;;5.67;5.00;;;;;19.00;62.15;101358.53;2038694;28;45491;-65
2022/10/02 01:11:47;;;;;;;;;2.33;2.00;;;;;19.00;62.39;101358.53;2046729;28;46148;-64
2022/10/02 01:12:49;;;;;;;;;3.00;2.00;;;;;19.02;62.14;101353.94;2046469;28;46642;-65
2022/10/02 01:13:50;;;;;;;;;4.75;4.00;;;;;19.03;62.33;101358.38;2047148;28;46680;-64
2022/10/02 01:14:50;;;;;;;;;2.75;2.75;;;;;19.05;62.25;101345.72;2054987;28;46776;-64
2022/10/02 01:15:53;;;;;;;;;3.00;0.67;;;;;19.07;62.02;101354.63;2053993;28;45628;-63
2022/10/02 01:16:53;;;;;;;;;2.00;2.00;;;;;19.07;62.33;101349.25;2054800;28;45274;-65
2022/10/02 01:17:55;;;;;;;;;3.00;3.00;;;;;19.10;62.43;101343.72;2055249;28;45751;-66
2022/10/02 01:18:55;;;;;;;;;2.00;2.00;;;;;19.10;62.34;101349.97;2054971;28;46525;-63
2022/10/02 01:19:58;;;;;;;;;3.00;3.00;;;;;19.09;62.10;101340.16;2055086;28;46343;-64
2022/10/02 01:21:04;;;;;;;;;1.25;1.25;;;;;19.10;62.73;101343.72;2055642;28;45767;-65
2022/10/02 01:22:17;;;;;;;;;3.50;3.50;;;;;19.10;63.17;101341.91;2055528;28;46797;-65
2022/10/02 01:23:24;;;;;;;;;3.25;2.75;;;;;19.09;62.97;101340.16;2055202;28;46553;-64
2022/10/02 01:24:33;;;;;;;;;2.50;2.50;;;;;19.09;63.09;101334.78;2055124;28;46497;-64
2022/10/02 01:25:34;;;;;;;;;3.25;3.00;;;;;19.09;63.48;101337.47;2055553;28;46978;-64
2022/10/02 01:26:34;;;;;;;;;3.33;2.00;;;;;19.09;63.59;101337.47;2054696;28;46600;-64
2022/10/02 01:27:35;;;;;;;;;3.00;3.00;;;;;19.09;63.44;101340.16;2055217;28;46795;-63
2022/10/02 01:28:36;;;;;;;;;2.00;2.00;;;;;19.09;63.34;101341.97;2055508;28;45273;-65
2022/10/02 01:29:36;;;;;;;;;4.00;3.00;;;;;19.08;64.01;101342.91;2055352;28;46395;-64
2022/10/02 01:30:40;;;;;;;;;3.00;3.00;;;;;19.08;64.10;101349.19;2046957;28;46701;-64
2022/10/02 01:31:41;;;;;;;;;4.00;3.25;;;;;19.07;64.25;101338.50;2047381;28;45397;-67
2022/10/02 01:32:48;;;;;;;;;4.00;2.75;;;;;19.07;64.34;101335.81;2055123;28;46353;-64
2022/10/02 01:33:49;;;;;;;;;2.25;2.00;;;;;19.07;64.10;101339.38;2055393;28;46860;-65
2022/10/02 01:34:50;;;;;;;;;3.25;2.50;;;;;19.06;64.31;101345.69;2055176;28;46041;-65
2022/10/02 01:35:51;;;;;;;;;2.00;1.25;;;;;19.06;64.68;101343.00;2069218;28;46140;-64
2022/10/02 01:36:52;;;;;;;;;3.00;3.00;;;;;19.06;64.42;101347.50;2074856;28;46876;-66
2022/10/02 01:37:54;;;;;;;;;1.75;1.75;;;;;19.04;64.54;101352.94;2077642;28;45813;-64
2022/10/02 01:38:55;;;;;;;;;3.25;2.25;;;;;19.02;64.25;101346.75;2077997;28;45709;-65
2022/10/02 01:40:02;;;;;;;;;2.75;2.25;;;;;19.00;64.56;101342.41;2077837;28;46703;-65
2022/10/02 01:41:02;;;;;;;;;2.00;2.00;;;;;18.98;65.17;101346.97;2071267;28;46845;-65
2022/10/02 01:42:03;;;;;;;;;2.00;2.00;;;;;18.97;65.09;101353.31;2073830;28;46215;-65
2022/10/02 01:43:09;;;;;;;;;3.67;1.67;;;;;18.94;65.33;101346.25;2072105;28;46804;-66
2022/10/02 01:44:10;;;;;;;;;1.00;1.00;;;;;18.92;65.63;101337.38;2078859;28;45782;-65
2022/10/02 01:45:10;;;;;;;;;3.25;2.75;;;;;18.93;65.36;101343.63;2076296;28;45156;-65
2022/10/02 01:46:20;;;;;;;;;3.33;3.00;;;;;18.91;65.56;101335.63;2081852;28;45943;-65
2022/10/02 01:47:31;;;;;;;;;3.00;3.00;;;;;18.90;66.55;101339.25;2096982;28;46612;-65
2022/10/02 01:48:44;;;;;;;;;3.00;3.00;;;;;18.89;66.64;101345.59;2097159;28;46618;-64
2022/10/02 01:49:54;;;;;;;;;2.00;2.00;;;;;18.88;66.47;101341.16;2100800;28;46395;-65
2022/10/02 01:51:15;;;;;;;;;1.75;1.75;;;;;18.88;66.60;101341.16;2097522;28;45757;-64
2022/10/02 01:52:21;;;;;;;;;2.00;1.25;;;;;18.89;66.63;101334.81;2088271;28;45583;-64
2022/10/02 01:53:34;;;;;;;;;2.75;2.00;;;;;18.89;66.53;101340.19;2085107;28;46484;-65
2022/10/02 01:55:02;;;;;;;;;1.75;1.75;;;;;18.90;66.75;101336.56;2097415;28;46769;-64
2022/10/02 01:56:14;;;;;;;;;3.00;3.00;;;;;18.90;66.88;101333.88;2096945;28;46595;-64
2022/10/02 01:57:47;;;;;;;;;1.25;1.25;;;;;18.90;66.68;101333.88;2089690;28;46653;-64
2022/10/02 01:59:04;;;;;;;;;1.75;1.75;;;;;18.90;66.89;101330.31;2090227;28;47148;-64
2022/10/02 02:00:09;;;;;;;;;1.50;1.50;;;;;18.92;66.77;101331.97;2096881;28;47452;-64
2022/10/02 02:01:30;;;;;;;;;4.00;2.50;;;;;18.91;66.90;101324.88;2097106;28;46534;-64
2022/10/02 02:02:40;;;;;;;;;2.50;2.50;;;;;18.92;67.34;101329.28;2096878;28;46379;-64
2022/10/02 02:03:46;;;;;;;;;2.25;1.75;;;;;18.92;67.00;101331.13;2096809;28;46726;-65
2022/10/02 02:05:02;;;;;;;;;1.25;0.50;;;;;18.92;67.21;101326.59;2097633;28;45689;-65
2022/10/02 02:06:25;;;;;;;;;2.00;1.75;;;;;18.92;67.14;101328.41;2097029;28;46754;-63
2022/10/02 02:07:39;;;;;;;;;4.25;3.00;;;;;18.92;66.87;101334.69;2096770;28;46804;-64
2022/10/02 02:08:52;;;;;;;;;2.50;2.50;;;;;18.94;67.25;101334.63;2096913;28;46635;-67
2022/10/02 02:10:17;;;;;;;;;2.75;1.75;;;;;18.94;67.34;101331.94;2089013;28;46615;-65
2022/10/02 02:11:20;;;;;;;;;2.50;2.50;;;;;18.93;67.39;101331.06;2089357;28;46520;-64
2022/10/02 02:12:29;;;;;;;;;2.00;2.00;;;;;18.93;67.65;101325.69;2085644;28;46346;-64
2022/10/02 02:13:38;;;;;;;;;3.00;3.00;;;;;18.95;67.37;101323.78;2088664;28;46808;-64
2022/10/02 02:15:12;;;;;;;;;1.75;1.75;;;;;18.96;67.09;101327.34;2097039;28;46620;-65
2022/10/02 02:16:34;;;;;;;;;2.75;2.00;;;;;18.95;66.95;101323.78;2079599;28;46447;-64
2022/10/02 02:18:11;;;;;;;;;3.25;3.25;;;;;18.95;66.91;101322.94;2083819;28;45705;-64
2022/10/02 02:19:21;;;;;;;;;4.25;4.25;;;;;18.93;67.28;101312.25;2081386;28;46856;-64
2022/10/02 02:20:29;;;;;;;;;2.25;2.25;;;;;18.93;67.73;101314.03;2087357;28;46575;-64
2022/10/02 02:21:38;;;;;;;;;3.00;3.00;;;;;18.94;67.41;101308.59;2079568;28;46593;-64
2022/10/02 02:22:44;;;;;;;;;2.25;2.00;;;;;18.95;67.31;101314.84;2081278;28;47732;-64
2022/10/02 02:23:46;;;;;;;;;1.00;1.00;;;;;18.95;67.55;101304.97;2087304;28;46648;-64
2022/10/02 02:25:11;;;;;;;;;1.50;1.50;;;;;18.95;67.83;101304.97;2085521;28;45602;-63
2022/10/02 02:26:15;;;;;;;;;5.25;4.25;;;;;18.95;67.88;101306.78;2080016;28;46575;-65
2022/10/02 02:27:21;;;;;;;;;2.50;2.50;;;;;18.95;67.58;101306.78;2079117;28;45774;-64
2022/10/02 02:28:26;;;;;;;;;1.50;1.50;;;;;18.95;67.67;101306.78;2079608;28;45791;-64
2022/10/02 02:29:30;;;;;;;;;0.75;0.75;;;;;18.95;67.37;101306.78;2078981;28;46425;-64
2022/10/02 02:30:35;;;;;;;;;1.00;1.00;;;;;18.93;67.45;101309.56;2079492;28;45959;-63
2022/10/02 02:31:40;;;;;;;;;1.00;1.00;;;;;18.92;67.88;101307.78;2085459;28;46710;-65
2022/10/02 02:32:47;;;;;;;;;1.00;1.00;;;;;18.92;67.85;101317.66;2080368;28;46531;-65
2022/10/02 02:33:54;;;;;;;;;1.25;1.25;;;;;18.91;67.85;101303.34;2079007;28;46489;-64
2022/10/02 02:35:04;;;;;;;;;0.25;0.25;;;;;18.92;68.11;101306.91;2079003;28;46675;-65
2022/10/02 02:36:14;;;;;;;;;2.00;1.75;;;;;18.91;67.78;101303.34;2080306;28;46273;-65
2022/10/02 02:37:20;;;;;;;;;2.00;2.00;;;;;18.90;68.51;101301.59;2082808;28;47124;-63
2022/10/02 02:38:29;;;;;;;;;2.50;2.50;;;;;18.92;68.35;101305.09;2079210;28;46517;-64
2022/10/02 02:39:50;;;;;;;;;4.00;2.25;;;;;18.92;67.90;101301.53;2072056;28;46080;-65
2022/10/02 02:40:51;;;;;;;;;1.25;1.25;;;;;18.91;68.64;101303.34;2054885;28;46063;-64
2022/10/02 02:41:57;;;;;;;;;1.00;1.00;;;;;18.90;68.07;101301.59;2060899;28;46774;-64
2022/10/02 02:43:09;;;;;;;;;1.75;0.75;;;;;18.88;68.05;101292.75;2062976;28;47064;-64
2022/10/02 02:44:20;;;;;;;;;1.25;1.25;;;;;18.86;67.98;101302.69;2062776;28;46632;-64
2022/10/02 02:45:26;;;;;;;;;4.00;2.75;;;;;18.83;69.00;101293.91;2064936;28;46043;-64
2022/10/02 02:48:09;;;;;;;;;1.25;1.25;;;;;18.80;69.31;101298.50;2063725;28;46735;-63
2022/10/02 02:49:11;;;;;;;;;1.00;1.00;;;;;18.81;68.99;101291.31;2063094;28;46556;-65
2022/10/02 02:50:23;;;;;;;;;1.75;1.25;;;;;18.81;69.21;101292.19;2062966;28;46337;-65
2022/10/02 02:51:30;;;;;;;;;0.00;0.00;;;;;18.82;69.24;101287.66;2063219;28;47342;-64
2022/10/02 02:52:37;;;;;;;;;2.75;2.75;;;;;18.83;69.33;101293.91;2063209;28;46591;-64
2022/10/02 02:53:42;;;;;;;;;2.00;2.00;;;;;18.83;69.55;101292.09;2068533;28;46397;-65
2022/10/02 02:54:47;;;;;;;;;1.00;0.75;;;;;18.84;69.38;101292.97;2070978;28;47540;-64
2022/10/02 02:55:54;;;;;;;;;1.25;1.25;;;;;18.81;69.35;101284.09;2070868;28;45754;-65
2022/10/02 02:56:57;;;;;;;;;1.00;1.00;;;;;18.82;69.69;101293.03;2070613;28;46456;-64
2022/10/02 02:58:17;;;;;;;;;1.75;1.75;;;;;18.83;69.82;101285.84;2070908;28;46378;-63
2022/10/02 02:59:19;;;;;;;;;0.75;0.75;;;;;18.85;69.91;101290.19;2070561;28;46514;-65
2022/10/02 03:00:21;;;;;;;;;1.00;1.00;;;;;18.85;70.14;101289.34;2070736;28;45390;-63
2022/10/02 03:01:22;;;;;;;;;2.75;2.75;;;;;18.86;69.69;101289.25;2070933;28;46818;-64
2022/10/02 03:02:22;;;;;;;;;1.00;1.00;;;;;18.86;69.56;101280.31;2070852;28;46548;-64
2022/10/02 03:03:22;;;;;;;;;1.00;1.00;;;;;18.87;69.80;101277.56;2069314;28;48457;-64
2022/10/02 03:04:23;;;;;;;;;1.33;1.33;;;;;18.88;69.85;101281.13;2070895;28;46344;-65
2022/10/02 03:05:24;;;;;;;;;1.33;1.33;;;;;18.89;69.97;101280.16;2069681;28;46183;-63
2022/10/02 03:06:31;;;;;;;;;2.00;1.00;;;;;18.89;69.96;101274.78;2071046;28;45873;-64
2022/10/02 03:07:31;;;;;;;;;2.50;2.50;;;;;18.90;69.82;101276.53;2070707;28;46514;-64
2022/10/02 03:08:36;;;;;;;;;2.00;2.00;;;;;18.89;69.77;101274.78;2071143;28;46986;-64
2022/10/02 03:09:38;;;;;;;;;2.25;2.25;;;;;18.90;70.01;101276.53;2071187;28;46800;-64
2022/10/02 03:11:12;;;;;;;;;2.25;1.75;;;;;18.92;69.88;101280.88;2079252;28;46778;-65
2022/10/02 03:12:32;;;;;;;;;2.75;2.75;;;;;18.92;69.83;101270.13;2066394;28;46195;-65
2022/10/02 03:14:04;;;;;;;;;1.00;1.00;;;;;18.94;69.87;101275.47;2056115;28;46937;-63
2022/10/02 03:15:21;;;;;;;;;5.25;3.75;;;;;18.94;70.10;101275.47;2050553;28;46798;-63
2022/10/02 03:16:59;;;;;;;;;2.75;2.75;;;;;18.94;70.32;101278.16;2060858;28;46470;-63
2022/10/02 03:18:07;;;;;;;;;3.75;2.00;;;;;18.93;70.12;101276.38;2060374;28;46063;-64
2022/10/02 03:19:31;;;;;;;;;1.00;1.00;;;;;18.92;70.30;101278.19;2077945;28;46108;-63
2022/10/02 03:21:11;;;;;;;;;2.00;2.00;;;;;18.92;70.37;101274.63;2070224;28;46443;-65
2022/10/02 03:22:24;;;;;;;;;1.75;1.75;;;;;18.92;70.20;101272.81;2076255;28;46479;-62
2022/10/02 03:23:35;;;;;;;;;2.00;2.00;;;;;18.94;70.69;101270.09;2071029;28;46445;-63
2022/10/02 03:24:48;;;;;;;;;4.00;3.00;;;;;18.94;70.59;101272.78;2074750;28;46998;-63
2022/10/02 03:25:58;;;;;;;;;2.00;2.00;;;;;18.95;70.24;101267.31;2076013;28;46643;-64
2022/10/02 03:27:15;;;;;;;;;1.25;1.25;;;;;18.94;70.38;101262.88;2071154;28;46040;-64
2022/10/02 03:28:23;;;;;;;;;2.25;2.25;;;;;18.95;70.68;101267.31;2071639;28;46570;-64
2022/10/02 03:29:30;;;;;;;;;3.00;3.00;;;;;18.96;70.38;101265.50;2072484;28;46749;-64
2022/10/02 03:30:32;;;;;;;;;2.25;2.25;;;;;18.96;70.62;101262.81;2070572;28;46435;-64
2022/10/02 03:31:34;;;;;;;;;3.25;2.00;;;;;18.96;70.81;101261.00;2076251;28;46695;-65
2022/10/02 03:32:38;;;;;;;;;3.00;3.00;;;;;18.95;70.87;101263.75;2072928;28;48392;-63
2022/10/02 03:33:39;;;;;;;;;2.75;2.75;;;;;18.94;70.53;101257.50;2071967;28;46249;-65
2022/10/02 03:34:40;;;;;;;;;2.00;2.00;;;;;18.94;70.42;101256.63;2070928;28;46681;-63
2022/10/02 03:35:42;;;;;;;;;2.00;2.00;;;;;18.94;70.93;101254.81;2070945;28;45503;-62
2022/10/02 03:36:44;;;;;;;;;2.50;1.25;;;;;18.95;70.88;101256.56;2076444;28;46650;-65
2022/10/02 03:37:49;;;;;;;;;3.00;3.00;;;;;18.96;70.55;101246.66;2074483;28;46343;-63
2022/10/02 03:38:54;;;;;;;;;2.00;2.00;;;;;18.97;70.51;101259.16;2074655;28;46247;-65
2022/10/02 03:39:59;;;;;;;;;2.00;2.00;;;;;18.99;70.71;101246.50;2074524;28;46911;-63
2022/10/02 03:41:00;;;;;;;;;1.50;1.50;;;;;19.00;70.60;101251.81;2070789;28;46904;-64
2022/10/02 03:42:00;;;;;;;;;2.33;2.33;;;;;18.99;70.38;101247.38;2074105;28;46905;-64
2022/10/02 03:43:01;;;;;;;;;0.33;0.33;;;;;19.00;70.31;101253.63;2073022;28;45660;-65
2022/10/02 03:44:01;;;;;;;;;2.33;2.00;;;;;18.99;70.37;101247.38;2071149;28;45029;-64
2022/10/02 03:45:02;;;;;;;;;1.00;1.00;;;;;19.00;70.98;101249.13;2072462;28;45562;-64
2022/10/02 03:46:03;;;;;;;;;2.00;2.00;;;;;18.99;70.53;101252.75;2070458;28;47814;-65
2022/10/02 03:47:03;;;;;;;;;1.00;1.00;;;;;18.98;70.63;101251.03;2070650;28;46230;-64
2022/10/02 03:48:04;;;;;;;;;1.00;1.00;;;;;18.99;70.55;101246.50;2071272;28;46610;-65
2022/10/02 03:49:04;;;;;;;;;1.33;1.33;;;;;18.98;71.09;101250.16;2070730;28;45467;-65
2022/10/02 03:50:05;;;;;;;;;1.00;1.00;;;;;18.98;71.00;101244.78;2045812;28;46002;-64
2022/10/02 03:51:05;;;;;;;;;1.00;1.00;;;;;18.98;70.77;101245.63;2046446;28;45660;-64
2022/10/02 03:52:05;;;;;;;;;4.00;4.00;;;;;18.99;70.82;101249.19;2052984;28;46480;-64
2022/10/02 03:53:13;;;;;;;;;1.00;1.00;;;;;18.98;70.72;101253.72;2044761;28;46836;-64
2022/10/02 03:54:18;;;;;;;;;1.00;1.00;;;;;18.99;70.96;101255.44;2046713;28;45738;-65
2022/10/02 03:55:34;;;;;;;;;2.25;2.25;;;;;18.98;70.84;101245.63;2046365;28;45216;-65
2022/10/02 03:56:42;;;;;;;;;3.75;1.50;;;;;18.98;70.99;101248.34;2047564;28;46835;-63
2022/10/02 03:57:45;;;;;;;;;1.00;1.00;;;;;18.99;70.69;101252.75;2045638;28;45948;-64
2022/10/02 03:58:48;;;;;;;;;2.00;2.00;;;;;19.00;70.92;101250.94;2043298;28;46771;-64
2022/10/02 04:00:04;;;;;;;;;1.25;1.25;;;;;19.00;70.91;101251.81;2053131;28;46997;-64
2022/10/02 04:01:12;;;;;;;;;1.25;0.75;;;;;19.01;70.82;101250.00;2063887;28;46219;-63
2022/10/02 04:02:29;;;;;;;;;1.75;1.75;;;;;19.03;70.29;101253.47;2070362;28;46853;-64
2022/10/02 04:03:34;;;;;;;;;0.75;0.75;;;;;19.02;70.58;101246.34;2067841;28;46734;-64
2022/10/02 04:04:45;;;;;;;;;1.00;1.00;;;;;19.03;71.16;101248.09;2062922;28;46964;-64
2022/10/02 04:05:52;;;;;;;;;3.00;1.00;;;;;19.03;70.26;101250.78;2069105;28;47367;-63
2022/10/02 04:07:01;;;;;;;;;1.75;1.75;;;;;19.02;70.71;101249.03;2062572;28;45930;-64
2022/10/02 04:08:16;;;;;;;;;3.00;1.75;;;;;19.02;70.82;101251.75;2067601;28;46668;-63
2022/10/02 04:09:24;;;;;;;;;0.00;0.00;;;;;19.00;70.98;101246.44;2070683;28;47007;-64
2022/10/02 04:10:31;;;;;;;;;0.50;0.50;;;;;19.02;70.72;101249.03;2070212;28;46894;-66
2022/10/02 04:11:37;;;;;;;;;0.50;0.25;;;;;19.02;71.13;101246.34;2070422;28;46832;-63
2022/10/02 04:12:42;;;;;;;;;1.00;1.00;;;;;19.03;70.84;101245.41;2064867;28;46782;-64
2022/10/02 04:13:55;;;;;;;;;0.25;0.25;;;;;19.02;71.06;101247.22;2067496;28;46755;-63
2022/10/02 04:15:19;;;;;;;;;0.00;0.00;;;;;19.04;70.62;101244.47;2070527;28;45831;-64
2022/10/02 04:16:30;;;;;;;;;2.50;0.75;;;;;19.04;70.94;101247.16;2067985;28;46754;-65
2022/10/02 04:17:46;;;;;;;;;1.00;0.25;;;;;19.04;70.88;101245.31;2065840;28;46837;-67
2022/10/02 04:19:08;;;;;;;;;1.25;1.25;;;;;19.04;70.94;101253.41;2064020;28;45855;-65
2022/10/02 04:20:21;;;;;;;;;0.25;0.25;;;;;19.04;71.02;101248.03;2062855;28;46814;-65
2022/10/02 04:21:35;;;;;;;;;1.00;1.00;;;;;19.04;71.01;101244.47;2065409;28;45850;-64
2022/10/02 04:22:41;;;;;;;;;0.00;0.00;;;;;19.05;71.40;101251.59;2092508;28;46293;-66
2022/10/02 04:23:53;;;;;;;;;0.00;0.00;;;;;19.04;71.03;101249.84;2096423;28;45203;-65
2022/10/02 04:25:02;;;;;;;;;0.00;0.00;;;;;19.04;70.93;101242.63;2089312;28;46487;-65
2022/10/02 04:26:12;;;;;;;;;0.00;0.00;;;;;19.02;71.09;101241.84;2088276;28;46930;-63
2022/10/02 04:27:35;;;;;;;;;0.50;0.50;;;;;19.03;71.21;101248.97;2089114;28;46439;-65
2022/10/02 04:28:43;;;;;;;;;1.00;0.75;;;;;19.03;71.08;101246.28;2087826;28;46736;-64
2022/10/02 04:29:49;;;;;;;;;0.25;0.25;;;;;19.04;71.53;101250.72;2088074;28;46397;-65
2022/10/02 04:30:52;;;;;;;;;0.25;0.00;;;;;19.05;70.99;101239.00;2092178;28;46932;-65
2022/10/02 04:32:19;;;;;;;;;0.00;0.00;;;;;19.05;71.01;101255.13;2087519;28;46873;-63
2022/10/02 04:33:23;;;;;;;;;1.00;1.00;;;;;19.04;71.01;101242.63;2062138;28;45532;-65
2022/10/02 04:34:23;;;;;;;;;0.00;0.00;;;;;19.04;71.05;101250.72;2062225;28;46924;-64
2022/10/02 04:35:36;;;;;;;;;0.00;0.00;;;;;19.02;70.81;101252.59;2062421;28;46309;-65
2022/10/02 04:37:21;;;;;;;;;0.00;0.00;;;;;19.01;70.96;101253.56;2061982;28;46525;-65
2022/10/02 04:38:54;;;;;;;;;1.33;0.00;;;;;19.00;70.66;101251.81;2059717;28;45545;-65
2022/10/02 04:40:13;;;;;;;;;0.00;0.00;;;;;19.00;70.68;101261.69;2061864;28;46352;-63
2022/10/02 04:41:29;;;;;;;;;0.25;0.25;;;;;18.98;71.03;101260.91;2055213;28;46374;-64
2022/10/02 04:43:00;;;;;;;;;0.00;0.00;;;;;18.95;70.59;101253.00;2062377;28;47056;-64
2022/10/02 04:44:34;;;;;;;;;0.00;0.00;;;;;18.93;70.90;101257.53;2061788;28;46761;-63
2022/10/02 04:45:45;;;;;;;;;0.00;0.00;;;;;18.92;71.56;101255.81;2062017;28;46861;-63
2022/10/02 04:46:58;;;;;;;;;0.00;0.00;;;;;18.92;70.86;101255.81;2062022;28;45845;-65
2022/10/02 04:48:24;;;;;;;;;0.00;0.00;;;;;18.90;71.30;101263.94;2062306;28;46587;-64
2022/10/02 04:49:42;;;;;;;;;0.00;0.00;;;;;18.91;71.02;101273.75;2062417;28;46494;-65
2022/10/02 04:51:13;;;;;;;;;0.00;0.00;;;;;18.91;71.43;101263.00;2061211;28;46568;-65
2022/10/02 04:52:31;;;;;;;;;0.00;0.00;;;;;18.90;71.22;101263.94;2061902;28;47122;-64
2022/10/02 04:53:49;;;;;;;;;0.00;0.00;;;;;18.88;71.01;101256.91;2062128;28;46954;-65
2022/10/02 04:55:21;;;;;;;;;0.00;0.00;;;;;18.86;71.16;101267.75;2062013;28;46365;-64
2022/10/02 04:56:54;;;;;;;;;0.00;0.00;;;;;18.87;71.93;101263.22;2061595;28;46927;-64
2022/10/02 04:58:13;;;;;;;;;0.00;0.00;;;;;18.87;71.62;101272.16;2061953;28;47445;-63
2022/10/02 04:59:32;;;;;;;;;0.00;0.00;;;;;18.87;72.20;101261.41;2058671;28;46661;-64
2022/10/02 05:00:47;;;;;;;;;0.00;0.00;;;;;18.89;71.56;101261.34;2060224;28;46938;-64
2022/10/02 05:01:53;;;;;;;;;0.00;0.00;;;;;18.88;71.32;101263.16;2061747;28;46952;-65
2022/10/02 05:02:56;;;;;;;;;0.00;0.00;;;;;18.87;71.57;101272.16;2062326;28;45870;-64
2022/10/02 05:03:57;;;;;;;;;0.00;0.00;;;;;18.87;71.38;101266.78;2062345;28;45658;-63
2022/10/02 05:04:57;;;;;;;;;0.00;0.00;;;;;18.89;71.75;101272.09;2061881;28;46842;-65
2022/10/02 05:06:16;;;;;;;;;0.00;0.00;;;;;18.89;71.91;101270.28;2069635;28;46222;-64
2022/10/02 05:07:22;;;;;;;;;0.00;0.00;;;;;18.90;71.58;101266.63;2067677;28;46893;-64
2022/10/02 05:08:35;;;;;;;;;0.00;0.00;;;;;18.90;71.62;101258.56;2062032;28;46682;-63
2022/10/02 05:09:57;;;;;;;;;0.00;0.00;;;;;18.91;71.58;101270.19;2061926;28;46899;-65
2022/10/02 05:11:21;;;;;;;;;0.00;0.00;;;;;18.92;71.26;101264.75;2072440;28;47132;-63
2022/10/02 05:12:47;;;;;;;;;0.00;0.00;;;;;18.94;71.88;101275.47;2090594;28;46422;-64
2022/10/02 05:14:04;;;;;;;;;0.00;0.00;;;;;18.94;71.50;101267.38;2090980;28;46659;-65
2022/10/02 05:15:19;;;;;;;;;0.00;0.00;;;;;18.95;71.24;101274.50;2095080;28;46631;-65
2022/10/02 05:16:19;;;;;;;;;0.00;0.00;;;;;18.95;71.44;101269.13;2088858;28;46202;-64
2022/10/02 05:17:25;;;;;;;;;0.00;0.00;;;;;18.97;71.34;101269.94;2090557;28;46378;-64
2022/10/02 05:18:59;;;;;;;;;0.00;0.00;;;;;18.95;71.64;101261.94;2094701;28;47082;-63
2022/10/02 05:20:08;;;;;;;;;0.00;0.00;;;;;18.95;71.65;101271.81;2095843;28;46103;-64
2022/10/02 05:21:24;;;;;;;;;0.00;0.00;;;;;18.95;71.78;101274.50;2092010;28;46689;-63
2022/10/02 05:22:51;;;;;;;;;0.00;0.00;;;;;18.95;71.95;101277.19;2087964;28;46560;-65
2022/10/02 05:24:09;;;;;;;;;0.00;0.00;;;;;18.95;71.91;101285.28;2087681;28;46407;-63
2022/10/02 05:25:35;;;;;;;;;0.00;0.00;;;;;18.96;71.63;101274.44;2095673;28;45752;-65
2022/10/02 05:27:11;;;;;;;;;0.00;0.00;;;;;18.97;71.54;101270.81;2095831;28;46100;-65
2022/10/02 05:28:42;;;;;;;;;0.00;0.00;;;;;18.97;71.58;101267.25;2093830;28;46065;-65
2022/10/02 05:29:48;;;;;;;;;0.25;0.25;;;;;18.95;71.83;101270.00;2095528;28;47005;-64
2022/10/02 05:31:12;;;;;;;;;0.25;0.00;;;;;18.95;71.35;101270.00;2097682;28;46889;-64
2022/10/02 05:32:36;;;;;;;;;0.00;0.00;;;;;18.95;71.65;101271.81;2089346;28;45688;-64
2022/10/02 05:33:56;;;;;;;;;0.00;0.00;;;;;18.94;71.41;101268.25;2095030;28;48461;-64